KRIV/RIV METAR and TAF weather

Enter ICAO airport designator
Station Type Date Time Source
KRIV METAR 2019/10/23 07:56 UTC NOAA

KRIV 230756Z AUTO 00000KT 10SM CLR 12/M01 A3000 RMK AO2 SLP148 T01211014 403390080


Station Type Date Time Source
KRIV Decoded METAR 2019/10/23 07:56 UTC NOAA

Riverside / March Air Force Base, CA, United States (KRIV) 33-54N 117-15W 468M
Oct 23, 2019 - 03:56 AM EDT / 2019.10.23 0756 UTC
Wind: Calm:0
Visibility: 10 mile(s):0
Sky conditions: clear
Temperature: 53.8 F (12.1 C)
Dew Point: 29.5 F (-1.4 C)
Relative Humidity: 39%
Pressure (altimeter): 30 in. Hg (1015 hPa)
ob: KRIV 230756Z AUTO 00000KT 10SM CLR 12/M01 A3000 RMK AO2 SLP148 T01211014 403390080
cycle: 8

Station Type Date Time Source
KRIV TAF 2019/10/23 04:04 UTC NOAA

TAF KRIV 230400Z 2304/2410 VRB04KT 9999 SKC QNH3000INS
BECMG 2316/2317 05009KT 9999 SKC QNH2989INS
BECMG 2320/2321 32009KT 9999 SKC QNH2985INS
BECMG 2403/2404 VRB05KT 9999 SKC QNH2991INS TX33/2322Z TN08/2313Z

Example: see airport list